Time;durP1;ratioP1;P1;durP2;ratioP2;P2;SDS_P1;SDS_P2;PMS_P1;PMS_P2;Temp;Humidity;BMP_temperature;BMP_pressure;BME280_temperature;BME280_humidity;BME280_pressure;Samples;Min_cycle;Max_cycle;Signal;HPM_P1;HPM_P2
2023/03/28 00:00:53;;;;;;;1.80;0.90;;;;;;;14.71;41.48;99801.47;5091173;28;20093;-68
2023/03/28 00:03:21;;;;;;;1.50;0.85;;;;;;;14.69;41.62;99808.81;5091508;28;20051;-68
2023/03/28 00:05:54;;;;;;;2.40;0.90;;;;;;;14.65;41.45;99809.19;5091314;28;20044;-68
2023/03/28 00:08:22;;;;;;;2.20;1.00;;;;;;;14.66;41.24;99819.78;5091368;28;20077;-68
2023/03/28 00:10:51;;;;;;;2.17;0.88;;;;;;;14.64;41.35;99832.50;5091279;28;20071;-68
2023/03/28 00:13:20;;;;;;;1.73;0.93;;;;;;;14.62;41.25;99829.09;5095054;28;20122;-68
2023/03/28 00:15:51;;;;;;;2.20;1.23;;;;;;;14.60;41.21;99831.06;5095020;28;20055;-68
2023/03/28 00:18:21;;;;;;;2.53;1.10;;;;;;;14.58;41.25;99838.38;5095013;28;20102;-68
2023/03/28 00:20:52;;;;;;;2.03;1.00;;;;;;;14.57;41.15;99828.59;5095118;28;20058;-68
2023/03/28 00:23:20;;;;;;;1.70;0.90;;;;;;;14.54;41.07;99839.59;5094946;28;20040;-68
2023/03/28 00:25:48;;;;;;;1.85;1.00;;;;;;;14.53;40.96;99843.28;5094808;28;20046;-67
2023/03/28 00:28:16;;;;;;;2.35;1.20;;;;;;;14.52;40.92;99849.63;5094830;28;20513;-67
2023/03/28 00:30:44;;;;;;;2.00;1.00;;;;;;;14.48;40.95;99858.91;5094760;28;20048;-68
2023/03/28 00:33:12;;;;;;;1.13;0.80;;;;;;;14.48;40.72;99866.97;5097144;28;20052;-67
2023/03/28 00:35:42;;;;;;;2.08;1.10;;;;;;;14.45;40.75;99869.88;5095533;28;20047;-67
2023/03/28 00:38:12;;;;;;;1.98;1.00;;;;;;;14.44;40.59;99873.50;5094532;28;20048;-67
2023/03/28 00:40:40;;;;;;;2.22;1.00;;;;;;;14.40;40.57;99880.97;5094296;28;20075;-67
2023/03/28 00:43:13;;;;;;;2.22;1.00;;;;;;;14.38;40.50;99880.25;5094485;28;20072;-69
2023/03/28 00:45:42;;;;;;;2.00;1.10;;;;;;;14.37;40.42;99880.34;5094520;28;20052;-68
2023/03/28 00:48:14;;;;;;;2.83;1.35;;;;;;;14.34;40.50;99884.16;5094418;28;20123;-66
2023/03/28 00:50:47;;;;;;;2.42;1.20;;;;;;;14.33;40.45;99888.66;5094487;28;20044;-67
2023/03/28 00:53:17;;;;;;;;;;;;;;;14.30;40.29;99894.28;5094835;28;20043;-67
2023/03/28 00:55:48;;;;;;;2.13;1.05;;;;;;;14.28;40.19;99896.25;5094386;28;19954;-68
2023/03/28 00:58:22;;;;;;;2.38;1.08;;;;;;;14.25;40.34;99899.16;5094226;28;20123;-68
2023/03/28 01:00:53;;;;;;;2.55;1.20;;;;;;;14.23;40.35;99897.59;5094058;28;20043;-68
2023/03/28 01:03:26;;;;;;;2.10;1.10;;;;;;;14.21;40.17;99912.97;5094124;28;20529;-68
2023/03/28 01:05:56;;;;;;;2.13;1.10;;;;;;;14.19;40.11;99923.81;5094038;28;20048;-68
2023/03/28 01:08:28;;;;;;;1.88;1.25;;;;;;;14.18;40.01;99926.59;5093925;28;20044;-68
2023/03/28 01:10:58;;;;;;;1.77;1.10;;;;;;;14.13;40.11;99929.66;5093874;28;20491;-68
2023/03/28 01:13:30;;;;;;;2.25;1.20;;;;;;;14.12;40.22;99927.97;5093828;28;20058;-68
2023/03/28 01:15:58;;;;;;;2.00;1.10;;;;;;;14.11;39.97;99930.75;5093784;28;20093;-68
2023/03/28 01:18:29;;;;;;;2.83;1.30;;;;;;;14.06;40.00;99928.44;5093782;28;20047;-68
2023/03/28 01:21:35;;;;;;;3.40;1.30;;;;;;;14.05;40.12;99921.38;5093461;28;20048;-68
2023/03/28 01:24:55;;;;;;;1.42;1.00;;;;;;;14.02;40.00;99926.97;5092999;28;20379;-68
2023/03/28 01:27:28;;;;;;;1.88;1.02;;;;;;;14.00;40.07;99920.91;5093493;28;20063;-68
2023/03/28 01:30:21;;;;;;;2.75;1.35;;;;;;;13.98;39.88;99928.19;5103942;28;20048;-68
2023/03/28 01:33:24;;;;;;;1.85;1.10;;;;;;;13.94;40.13;99938.31;5113926;28;20044;-67
2023/03/28 01:36:15;;;;;;;2.67;1.33;;;;;;;13.91;40.11;99935.88;5113840;28;20039;-68
2023/03/28 01:39:14;;;;;;;4.35;1.30;;;;;;;13.88;39.98;99941.47;5113564;28;20055;-68
2023/03/28 01:41:51;;;;;;;1.98;1.13;;;;;;;13.87;39.94;99945.13;5113660;28;20047;-68
2023/03/28 01:44:26;;;;;;;3.50;1.30;;;;;;;13.85;39.97;99940.88;5113770;28;20104;-68
2023/03/28 01:47:01;;;;;;;2.92;1.23;;;;;;;13.83;39.68;99958.91;5113741;28;20048;-69
2023/03/28 01:49:37;;;;;;;2.80;1.40;;;;;;;13.81;39.69;99960.84;5113606;28;20146;-68
2023/03/28 01:52:13;;;;;;;2.78;1.20;;;;;;;13.79;39.81;99955.59;5113497;28;20467;-70
2023/03/28 01:54:52;;;;;;;1.98;1.10;;;;;;;13.77;39.74;99967.41;5113371;28;20063;-68
2023/03/28 01:57:26;;;;;;;2.47;1.27;;;;;;;13.71;39.86;99966.94;5113626;28;20078;-69
2023/03/28 02:00:10;;;;;;;2.42;1.10;;;;;;;13.71;39.72;99972.28;5113554;28;20113;-69
2023/03/28 02:02:48;;;;;;;2.65;1.20;;;;;;;13.71;39.83;99976.81;5113127;28;20047;-68
2023/03/28 02:05:19;;;;;;;2.17;1.15;;;;;;;13.70;39.80;99977.75;5113403;28;20061;-70
2023/03/28 02:07:50;;;;;;;2.03;1.10;;;;;;;13.68;39.83;99982.38;5113226;28;20510;-69
2023/03/28 02:10:25;;;;;;;2.47;1.25;;;;;;;13.66;39.80;99982.50;5113365;28;20049;-69
2023/03/28 02:12:59;;;;;;;2.47;1.30;;;;;;;13.65;39.89;99985.31;5113173;28;20043;-70
2023/03/28 02:15:30;;;;;;;2.80;1.35;;;;;;;13.63;40.08;99990.78;5112999;28;20488;-69
2023/03/28 02:18:03;;;;;;;2.17;1.17;;;;;;;13.60;39.96;99991.00;5113091;27;20047;-69
2023/03/28 02:20:37;;;;;;;1.90;1.13;;;;;;;13.57;40.00;99983.22;5113003;28;20047;-69
2023/03/28 02:23:13;;;;;;;2.17;1.13;;;;;;;13.58;39.89;99998.31;5112923;28;20047;-69
2023/03/28 02:25:43;;;;;;;1.23;0.90;;;;;;;13.57;40.11;99991.25;5112948;28;20534;-68
2023/03/28 02:28:16;;;;;;;2.10;1.10;;;;;;;13.55;40.15;99995.88;5113312;28;20483;-68
2023/03/28 02:30:44;;;;;;;2.85;1.42;;;;;;;13.54;40.13;99996.84;5112802;28;20075;-68
2023/03/28 02:33:38;;;;;;;2.58;1.02;;;;;;;13.53;40.15;100000.50;5113023;28;20043;-70
2023/03/28 02:36:22;;;;;;;2.80;1.30;;;;;;;13.51;40.11;99997.09;5111793;28;20122;-69
2023/03/28 02:39:00;;;;;;;2.03;1.20;;;;;;;13.50;40.19;99995.34;5112545;28;20066;-69
2023/03/28 02:41:40;;;;;;;3.15;1.48;;;;;;;13.47;40.21;99995.59;5112558;28;20443;-69
2023/03/28 02:44:29;;;;;;;2.05;1.20;;;;;;;13.45;40.20;100003.75;5112577;28;20043;-69
2023/03/28 02:47:10;;;;;;;2.83;1.38;;;;;;;13.45;40.09;100002.91;5112532;28;20051;-68
2023/03/28 02:49:48;;;;;;;2.30;1.02;;;;;;;13.43;40.00;100004.84;5112660;28;20062;-68
2023/03/28 02:52:33;;;;;;;3.35;1.40;;;;;;;13.42;40.20;100008.50;5112477;28;20089;-69
2023/03/28 02:55:06;;;;;;;2.22;1.00;;;;;;;13.39;40.14;99998.00;5112362;28;20051;-69
2023/03/28 02:57:38;;;;;;;2.65;1.30;;;;;;;13.39;39.94;100019.44;5112487;28;20044;-69
2023/03/28 03:00:11;;;;;;;2.20;1.10;;;;;;;13.37;40.07;100027.59;5112342;28;20105;-70
2023/03/28 03:02:42;;;;;;;2.63;1.27;;;;;;;13.35;39.81;100023.34;5112337;28;20058;-70
2023/03/28 03:05:10;;;;;;;1.95;1.20;;;;;;;13.33;39.78;100028.81;5112351;28;20071;-69
2023/03/28 03:07:39;;;;;;;2.90;1.35;;;;;;;13.30;39.79;100037.06;5112147;28;20043;-69
2023/03/28 03:10:12;;;;;;;3.65;1.27;;;;;;;13.29;40.01;100035.34;5112423;28;20385;-69
2023/03/28 03:12:46;;;;;;;2.58;1.33;;;;;;;13.25;40.04;100025.00;5112224;28;20071;-69
2023/03/28 03:15:15;;;;;;;2.10;1.20;;;;;;;13.24;39.96;100032.19;5112349;28;20619;-69
2023/03/28 03:17:44;;;;;;;2.28;1.13;;;;;;;13.24;40.00;100031.31;5112317;28;20067;-72
2023/03/28 03:20:13;;;;;;;3.00;1.30;;;;;;;13.23;40.02;100049.22;5112093;28;20048;-70
2023/03/28 03:22:43;;;;;;;2.17;1.17;;;;;;;13.21;40.25;100044.91;5111977;28;20138;-70
2023/03/28 03:25:12;;;;;;;2.33;1.17;;;;;;;13.21;40.05;100058.31;5112160;28;20057;-70
2023/03/28 03:27:41;;;;;;;2.25;1.33;;;;;;;13.18;40.27;100052.19;5112155;28;20476;-71
2023/03/28 03:30:13;;;;;;;3.20;1.40;;;;;;;13.17;40.03;100071.06;5112023;28;20519;-70
2023/03/28 03:32:44;;;;;;;2.17;1.33;;;;;;;13.16;40.01;100070.19;5111990;28;20134;-70
2023/03/28 03:35:12;;;;;;;2.33;1.17;;;;;;;13.13;40.09;100070.44;5110274;28;20048;-70
2023/03/28 03:37:40;;;;;;;2.17;1.30;;;;;;;13.12;40.07;100082.13;5112251;28;20089;-70
2023/03/28 03:40:10;;;;;;;3.03;1.25;;;;;;;13.09;39.96;100082.31;5111972;28;20079;-70
2023/03/28 03:42:41;;;;;;;2.45;1.40;;;;;;;13.09;39.95;100084.13;5111994;28;20047;-70
2023/03/28 03:45:10;;;;;;;3.00;1.50;;;;;;;13.08;40.05;100085.13;5111936;28;20039;-70
2023/03/28 03:47:39;;;;;;;3.38;1.40;;;;;;;13.07;39.99;100100.31;5114956;28;20040;-70
2023/03/28 03:50:09;;;;;;;2.83;1.30;;;;;;;13.05;40.08;100096.91;5115841;27;20439;-69
2023/03/28 03:52:39;;;;;;;2.70;1.38;;;;;;;13.04;40.16;100102.38;5116087;28;20055;-70
2023/03/28 03:55:08;;;;;;;2.17;1.27;;;;;;;13.01;40.15;100105.25;5115827;28;20043;-71
2023/03/28 03:57:36;;;;;;;1.95;1.30;;;;;;;13.02;39.83;100105.16;5115699;28;20065;-70
2023/03/28 04:00:10;;;;;;;2.50;1.45;;;;;;;12.98;40.01;100101.00;5115642;28;20046;-70
2023/03/28 04:02:41;;;;;;;2.33;1.40;;;;;;;12.98;40.09;100111.69;5115846;28;20043;-70
2023/03/28 04:05:09;;;;;;;3.22;1.40;;;;;;;12.96;40.05;100121.69;5115642;28;20071;-70
2023/03/28 04:07:38;;;;;;;2.60;1.60;;;;;;;12.95;40.06;100117.28;5115517;28;20043;-68
2023/03/28 04:10:09;;;;;;;3.58;1.52;;;;;;;12.92;39.98;100114.81;5115441;28;20043;-70
2023/03/28 04:12:39;;;;;;;3.35;1.20;;;;;;;12.90;40.05;100119.44;5115615;27;20071;-69
2023/03/28 04:15:08;;;;;;;3.22;1.48;;;;;;;12.91;40.16;100126.50;5115336;28;20127;-68
2023/03/28 04:17:40;;;;;;;2.22;1.42;;;;;;;12.88;40.13;100126.72;5115414;28;20047;-70
2023/03/28 04:20:13;;;;;;;2.33;1.40;;;;;;;12.87;40.17;100141.06;5115409;28;20047;-68
2023/03/28 04:22:42;;;;;;;2.45;1.30;;;;;;;12.87;40.12;100141.06;5114988;28;20086;-69
2023/03/28 04:25:13;;;;;;;2.15;1.20;;;;;;;12.83;39.93;100139.56;5115203;28;20105;-70
2023/03/28 04:27:45;;;;;;;3.05;1.40;;;;;;;12.85;40.09;100145.69;5115240;28;20044;-68
2023/03/28 04:30:16;;;;;;;4.00;1.50;;;;;;;12.84;40.12;100138.63;5104366;28;20054;-69
2023/03/28 04:32:48;;;;;;;4.28;1.55;;;;;;;12.83;40.23;100142.25;5094674;28;20386;-69
2023/03/28 04:35:18;;;;;;;3.65;1.42;;;;;;;12.80;40.30;100145.13;5094403;28;20481;-70
2023/03/28 04:37:48;;;;;;;3.10;1.23;;;;;;;12.82;40.52;100148.56;5094650;28;20042;-70
2023/03/28 04:40:18;;;;;;;2.97;1.52;;;;;;;12.83;40.46;100166.31;5094287;28;20062;-69
2023/03/28 04:42:46;;;;;;;2.00;1.20;;;;;;;12.85;40.41;100159.91;5094359;28;20066;-68
2023/03/28 04:45:15;;;;;;;2.42;1.25;;;;;;;12.91;40.48;100153.25;5094347;28;20512;-68
2023/03/28 04:47:45;;;;;;;2.33;1.20;;;;;;;12.96;40.68;100159.16;5094398;28;20044;-68
2023/03/28 04:50:13;;;;;;;2.72;1.52;;;;;;;13.03;40.64;100163.13;5094229;28;20537;-69
2023/03/28 04:52:43;;;;;;;2.03;1.23;;;;;;;13.11;40.55;100160.72;5094217;28;20134;-70
2023/03/28 04:55:11;;;;;;;2.20;1.30;;;;;;;13.17;40.67;100173.69;5094268;28;20135;-69
2023/03/28 04:57:39;;;;;;;2.05;1.20;;;;;;;13.26;40.50;100176.69;5093353;28;20044;-68
2023/03/28 05:00:11;;;;;;;2.17;1.33;;;;;;;13.36;40.68;100180.41;5093701;28;20074;-68
2023/03/28 05:02:41;;;;;;;;;;;;;;;13.44;40.50;100173.53;5094175;28;20449;-68
2023/03/28 05:05:09;;;;;;;3.53;1.45;;;;;;;13.52;40.44;100175.66;5093872;28;19973;-70
2023/03/28 05:07:37;;;;;;;2.72;1.40;;;;;;;13.62;40.37;100179.38;5093929;28;20397;-68
2023/03/28 05:10:08;;;;;;;2.88;1.27;;;;;;;13.68;40.46;100170.84;5093784;28;20484;-68
2023/03/28 05:12:38;;;;;;;2.05;1.20;;;;;;;13.80;40.23;100184.31;5093847;28;20511;-68
2023/03/28 05:15:08;;;;;;;2.50;1.27;;;;;;;13.88;40.40;100173.88;5093654;28;20122;-69
2023/03/28 05:17:36;;;;;;;2.58;1.30;;;;;;;13.97;40.12;100182.06;5093615;28;20481;-69
2023/03/28 05:20:09;;;;;;;3.03;1.30;;;;;;;14.01;40.04;100177.34;5093809;28;20055;-69
2023/03/28 05:22:43;;;;;;;2.30;1.30;;;;;;;14.11;40.08;100189.09;5093480;28;20046;-67
2023/03/28 05:25:13;;;;;;;1.75;1.10;;;;;;;14.12;39.95;100198.84;5093613;28;20097;-67
2023/03/28 05:27:42;;;;;;;2.40;1.35;;;;;;;14.16;39.89;100203.00;5093512;28;20048;-69
2023/03/28 05:30:14;;;;;;;2.03;1.47;;;;;;;14.18;39.82;100209.09;5093596;28;20059;-69
2023/03/28 05:32:42;;;;;;;2.17;1.33;;;;;;;14.18;39.93;100203.72;5093374;28;20287;-69
2023/03/28 05:35:12;;;;;;;1.70;1.10;;;;;;;14.19;39.83;100210.84;5093474;28;20048;-69
2023/03/28 05:37:41;;;;;;;3.05;1.50;;;;;;;14.18;39.88;100221.66;5093217;28;20044;-70
2023/03/28 05:40:17;;;;;;;2.38;1.35;;;;;;;14.17;39.70;100219.94;5092673;28;20074;-69
2023/03/28 05:42:46;;;;;;;2.83;1.30;;;;;;;14.16;39.73;100215.56;5103266;28;20070;-69
2023/03/28 05:45:14;;;;;;;2.05;1.20;;;;;;;14.14;39.85;100223.72;5113429;28;20510;-68
2023/03/28 05:47:42;;;;;;;2.75;1.50;;;;;;;14.14;39.64;100221.03;5113292;28;20047;-69
2023/03/28 05:50:12;;;;;;;2.53;1.38;;;;;;;14.10;39.68;100227.63;5113727;28;20058;-69
2023/03/28 05:52:41;;;;;;;2.15;1.30;;;;;;;14.11;39.62;100226.66;5113015;27;20040;-69
2023/03/28 05:55:09;;;;;;;3.03;1.40;;;;;;;14.09;39.30;100228.59;5113224;28;20047;-69
2023/03/28 05:57:39;;;;;;;1.75;1.20;;;;;;;14.07;39.27;100238.56;5113259;28;20065;-68
2023/03/28 06:00:12;;;;;;;2.78;1.67;;;;;;;14.07;39.14;100240.38;5113276;28;20048;-68
2023/03/28 06:02:43;;;;;;;2.63;1.40;;;;;;;14.06;39.14;100244.91;5113118;27;20050;-68
2023/03/28 06:05:12;;;;;;;2.47;1.60;;;;;;;14.03;39.20;100245.13;5112938;28;20071;-69
2023/03/28 06:07:40;;;;;;;3.17;1.60;;;;;;;13.97;39.65;100245.56;5113005;28;20074;-72
2023/03/28 06:10:14;;;;;;;2.53;1.48;;;;;;;13.98;39.35;100258.88;5113075;28;20043;-69
2023/03/28 06:12:46;;;;;;;2.13;1.27;;;;;;;13.96;39.38;100268.00;5113094;28;20515;-68
2023/03/28 06:15:14;;;;;;;2.97;1.55;;;;;;;13.94;39.05;100267.28;5112874;28;20050;-68
2023/03/28 06:17:42;;;;;;;2.47;1.55;;;;;;;13.93;39.43;100277.13;5116087;28;20102;-71
2023/03/28 06:20:12;;;;;;;3.22;1.60;;;;;;;13.90;39.38;100281.88;5112969;28;20044;-70
2023/03/28 06:22:41;;;;;;;2.42;1.40;;;;;;;13.89;38.96;100288.19;5112901;28;20477;-71
2023/03/28 06:25:10;;;;;;;3.25;1.80;;;;;;;13.86;38.94;100291.09;5112912;28;20043;-73
2023/03/28 06:27:38;;;;;;;2.25;1.38;;;;;;;13.83;39.31;100288.66;5113162;28;20131;-72
2023/03/28 06:30:10;;;;;;;2.40;1.48;;;;;;;13.81;39.18;100288.78;5112747;28;20460;-72
2023/03/28 06:32:39;;;;;;;3.17;1.80;;;;;;;13.80;39.19;100292.44;5112728;28;20043;-71
2023/03/28 06:35:08;;;;;;;3.70;1.75;;;;;;;13.74;38.99;100304.44;5112766;28;20042;-72
2023/03/28 06:37:37;;;;;;;2.45;1.50;;;;;;;13.74;39.31;100314.31;5112614;28;20074;-72
2023/03/28 06:40:11;;;;;;;2.90;1.60;;;;;;;13.70;39.34;100312.78;5112383;28;20048;-72
2023/03/28 06:42:39;;;;;;;3.08;1.45;;;;;;;13.67;39.38;100329.97;5112628;28;20040;-72
2023/03/28 06:45:10;;;;;;;2.20;1.50;;;;;;;13.64;39.44;100332.88;5112313;28;20123;-71
2023/03/28 06:47:38;;;;;;;2.20;1.40;;;;;;;13.62;39.37;100331.28;5101662;28;20449;-71
2023/03/28 06:50:08;;;;;;;2.67;1.60;;;;;;;13.60;39.42;100334.03;5091896;28;20054;-71
2023/03/28 06:52:38;;;;;;;4.05;1.65;;;;;;;13.59;39.43;100326.97;5091974;28;20048;-70
2023/03/28 06:55:07;;;;;;;3.35;1.85;;;;;;;13.56;39.67;100337.91;5091589;28;20440;-70
2023/03/28 06:57:35;;;;;;;2.97;1.50;;;;;;;13.55;39.41;100328.16;5091061;28;20044;-70
2023/03/28 07:00:06;;;;;;;3.05;1.58;;;;;;;13.53;39.45;100351.53;5104615;28;20500;-74
2023/03/28 07:02:36;;;;;;;2.40;1.40;;;;;;;13.52;39.39;100330.22;5086480;28;20044;-71
2023/03/28 07:05:04;;;;;;;2.55;1.50;;;;;;;13.50;39.53;100332.97;5091668;28;20076;-73
2023/03/28 07:07:33;;;;;;;3.13;1.52;;;;;;;13.47;39.33;100325.16;5091679;28;20074;-73
2023/03/28 07:10:01;;;;;;;2.50;1.60;;;;;;;13.45;39.41;100330.66;5091687;28;20447;-73
2023/03/28 07:12:30;;;;;;;2.85;1.65;;;;;;;13.44;39.51;100333.44;5091783;28;20051;-73
2023/03/28 07:14:58;;;;;;;3.00;1.65;;;;;;;13.43;39.38;100350.47;5091704;28;20093;-73
2023/03/28 07:17:26;;;;;;;4.93;1.83;;;;;;;13.42;39.67;100338.06;5091700;28;20063;-73
2023/03/28 07:19:56;;;;;;;2.63;1.45;;;;;;;13.40;39.63;100335.47;5091628;28;20047;-72
2023/03/28 07:22:24;;;;;;;2.40;1.52;;;;;;;13.39;39.53;100346.28;5094508;28;20066;-74
2023/03/28 07:24:52;;;;;;;3.20;1.60;;;;;;;13.37;39.61;100332.16;5095697;28;20075;-73
2023/03/28 07:27:21;;;;;;;3.50;1.65;;;;;;;13.38;39.62;100334.72;5095682;28;20119;-73
2023/03/28 07:29:52;;;;;;;2.60;1.40;;;;;;;13.34;39.89;100333.22;5095853;28;20437;-74
2023/03/28 07:32:21;;;;;;;2.00;1.40;;;;;;;13.36;39.57;100333.13;5095654;28;20123;-74
2023/03/28 07:34:49;;;;;;;2.15;1.48;;;;;;;13.35;39.53;100331.41;5095953;28;20043;-74
2023/03/28 07:37:19;;;;;;;2.00;1.30;;;;;;;13.34;39.73;100332.38;5095956;28;20119;-74
2023/03/28 07:39:47;;;;;;;2.88;1.60;;;;;;;13.30;39.75;100341.56;5095611;28;20179;-74
2023/03/28 07:42:16;;;;;;;3.20;1.42;;;;;;;13.31;39.86;100340.59;5094296;28;20044;-75
2023/03/28 07:44:44;;;;;;;3.20;1.52;;;;;;;13.29;39.80;100337.19;5095441;28;20055;-75
2023/03/28 07:47:13;;;;;;;1.83;1.20;;;;;;;13.27;39.66;100363.22;5095447;28;20126;-75
2023/03/28 07:49:41;;;;;;;2.38;1.38;;;;;;;13.26;39.68;100350.81;5095440;28;20044;-76
2023/03/28 07:52:09;;;;;;;2.33;1.33;;;;;;;13.23;39.80;100356.38;5095267;28;20127;-75
2023/03/28 07:54:38;;;;;;;2.88;1.40;;;;;;;13.22;39.54;100365.34;5095459;28;20044;-76
2023/03/28 07:57:07;;;;;;;2.83;1.38;;;;;;;13.22;39.55;100351.97;5095472;28;20405;-76
2023/03/28 07:59:36;;;;;;;1.98;1.13;;;;;;;13.20;39.51;100356.56;5095057;28;20040;-74
2023/03/28 08:02:04;;;;;;;2.78;1.17;;;;;;;13.16;39.43;100340.69;5095290;28;20477;-74
2023/03/28 08:04:32;;;;;;;2.13;1.00;;;;;;;13.17;39.68;100355.78;5095067;28;20050;-74
2023/03/28 08:07:01;;;;;;;2.40;1.25;;;;;;;13.15;39.56;100349.69;5095171;28;20044;-75
2023/03/28 08:09:29;;;;;;;2.60;1.23;;;;;;;13.15;39.64;100344.34;5095333;28;20044;-74
2023/03/28 08:11:58;;;;;;;2.05;1.17;;;;;;;13.12;39.64;100349.91;5095366;28;20048;-73
2023/03/28 08:14:27;;;;;;;2.03;1.10;;;;;;;13.12;39.55;100336.53;5095044;28;20043;-73
2023/03/28 08:16:55;;;;;;;2.92;1.20;;;;;;;13.12;39.63;100355.28;5095445;28;20054;-73
2023/03/28 08:19:23;;;;;;;2.88;1.30;;;;;;;13.11;39.59;100337.47;5094917;28;20065;-74
2023/03/28 08:21:52;;;;;;;2.17;1.10;;;;;;;13.09;39.71;100344.75;5094656;28;20115;-73
2023/03/28 08:24:20;;;;;;;2.13;1.10;;;;;;;13.11;39.62;100358.03;5094722;28;20051;-73
2023/03/28 08:27:04;;;;;;;2.22;1.27;;;;;;;13.10;39.56;100351.81;5094728;28;20372;-72
2023/03/28 08:29:33;;;;;;;2.38;1.00;;;;;;;13.10;39.77;100357.19;5094593;28;20066;-72
2023/03/28 08:32:02;;;;;;;2.42;1.10;;;;;;;13.08;39.75;100348.41;5094560;28;20044;-72
2023/03/28 08:34:30;;;;;;;2.00;1.10;;;;;;;13.08;39.73;100353.75;5094530;28;20101;-73
2023/03/28 08:36:59;;;;;;;2.10;1.10;;;;;;;13.07;39.64;100357.41;5094527;28;20150;-72
2023/03/28 08:39:27;;;;;;;1.88;1.10;;;;;;;13.07;39.74;100348.50;5094279;28;20063;-74
2023/03/28 08:42:16;;;;;;;3.13;1.00;;;;;;;13.07;39.81;100357.41;5094473;28;20083;-73
2023/03/28 08:44:56;;;;;;;1.83;1.10;;;;;;;13.07;39.78;100349.34;5094478;28;20044;-73
2023/03/28 08:47:29;;;;;;;1.70;0.98;;;;;;;13.07;39.72;100359.22;5094425;28;20473;-72
2023/03/28 08:50:03;;;;;;;2.90;1.13;;;;;;;13.06;39.97;100347.66;5094374;28;20093;-73
2023/03/28 08:52:31;;;;;;;2.58;1.13;;;;;;;13.02;39.94;100338.09;5094149;28;20477;-73
2023/03/28 08:55:05;;;;;;;1.80;1.08;;;;;;;13.06;39.92;100354.81;5094278;28;20047;-73
2023/03/28 08:57:36;;;;;;;2.38;1.20;;;;;;;13.06;39.99;100336.09;5094224;28;20127;-73
2023/03/28 09:00:13;;;;;;;1.83;1.00;;;;;;;13.05;39.95;100326.34;5094536;28;20139;-73
2023/03/28 09:02:42;;;;;;;1.42;0.77;;;;;;;13.05;39.73;100342.41;5094012;28;20048;-73
2023/03/28 09:05:15;;;;;;;1.95;1.10;;;;;;;13.02;39.77;100330.06;5093864;28;20070;-73
2023/03/28 09:07:58;;;;;;;2.35;1.13;;;;;;;13.02;39.90;100335.41;5093901;28;20443;-73
2023/03/28 09:10:37;;;;;;;2.42;1.00;;;;;;;13.03;39.93;100331.81;5094062;28;20074;-73
2023/03/28 09:13:25;;;;;;;2.35;0.95;;;;;;;13.00;39.79;100331.13;5093942;28;20492;-73
2023/03/28 09:16:15;;;;;;;2.05;0.90;;;;;;;13.01;39.70;100320.31;5093850;28;20466;-73
2023/03/28 09:18:59;;;;;;;2.85;1.10;;;;;;;13.03;39.69;100338.97;5093502;28;20051;-72
2023/03/28 09:21:33;;;;;;;2.58;1.08;;;;;;;13.02;39.68;100327.38;5093508;28;20439;-73
2023/03/28 09:24:28;;;;;;;2.55;0.82;;;;;;;13.03;39.78;100333.63;5093568;28;20048;-74
2023/03/28 09:27:03;;;;;;;1.27;0.63;;;;;;;13.02;39.86;100338.09;5093678;28;20044;-73
2023/03/28 09:29:36;;;;;;;1.52;0.80;;;;;;;13.01;39.77;100324.81;5093532;28;20052;-73
2023/03/28 09:32:16;;;;;;;1.73;0.88;;;;;;;13.02;39.73;100343.44;5093373;28;20051;-74
2023/03/28 09:34:49;;;;;;;1.77;0.80;;;;;;;13.03;39.81;100347.88;5093551;28;20044;-75
2023/03/28 09:37:27;;;;;;;2.97;1.07;;;;;;;13.02;39.71;100324.69;5093434;28;20044;-73
2023/03/28 09:40:00;;;;;;;1.40;0.70;;;;;;;13.03;39.58;100333.63;5093140;28;20296;-73
2023/03/28 09:42:35;;;;;;;3.00;0.90;;;;;;;13.02;39.42;100330.06;5093259;28;20044;-73
2023/03/28 09:45:16;;;;;;;1.52;0.70;;;;;;;13.04;39.50;100360.28;5092642;28;20044;-74
2023/03/28 09:47:46;;;;;;;1.23;0.60;;;;;;;13.04;39.58;100352.25;5093190;28;20048;-73
2023/03/28 09:50:17;;;;;;;1.00;0.70;;;;;;;13.04;39.45;100357.63;5093396;28;20105;-73
2023/03/28 09:52:46;;;;;;;1.88;0.80;;;;;;;13.03;39.41;100361.25;5092974;28;20400;-73
2023/03/28 09:55:17;;;;;;;2.35;0.70;;;;;;;13.06;39.24;100361.03;5092896;28;20040;-74
2023/03/28 09:58:00;;;;;;;2.60;0.80;;;;;;;13.04;39.22;100327.31;5092870;28;20040;-75
2023/03/28 10:00:35;;;;;;;1.67;0.70;;;;;;;13.06;39.16;100341.44;5092829;28;20457;-75
2023/03/28 10:03:04;;;;;;;1.00;0.63;;;;;;;13.08;39.26;100351.06;5092875;28;20057;-73
2023/03/28 10:05:37;;;;;;;1.33;0.55;;;;;;;13.09;39.24;100339.41;5092733;28;20093;-73
2023/03/28 10:08:22;;;;;;;2.05;0.75;;;;;;;13.08;39.27;100337.69;5092692;28;20048;-73
2023/03/28 10:11:01;;;;;;;1.35;0.50;;;;;;;13.10;39.36;100362.53;5092840;28;20052;-74
2023/03/28 10:13:36;;;;;;;0.60;0.47;;;;;;;13.13;39.28;100346.28;5092742;28;20147;-73
2023/03/28 10:16:08;;;;;;;1.65;0.45;;;;;;;13.11;39.17;100329.44;5092449;28;20036;-74
2023/03/28 10:18:39;;;;;;;1.13;0.63;;;;;;;13.15;39.07;100338.13;5092537;28;20131;-73
2023/03/28 10:21:13;;;;;;;1.75;0.80;;;;;;;13.17;39.27;100307.59;5092284;28;20064;-73
2023/03/28 10:23:44;;;;;;;1.92;0.60;;;;;;;13.20;39.00;100327.09;5092535;28;20480;-73
2023/03/28 10:26:21;;;;;;;0.55;0.50;;;;;;;13.21;39.12;100315.44;5092456;28;20169;-76
2023/03/28 10:28:56;;;;;;;1.73;0.70;;;;;;;13.23;39.24;100332.28;5092517;28;20044;-75
2023/03/28 10:31:29;;;;;;;1.60;0.60;;;;;;;13.25;39.22;100322.31;5092478;28;20067;-75
2023/03/28 10:33:58;;;;;;;;;;;;;;;13.26;39.13;100324.00;5093372;28;20079;-76
2023/03/28 10:36:30;;;;;;;1.55;0.65;;;;;;;13.26;39.14;100322.19;5092646;28;19919;-75
2023/03/28 10:38:59;;;;;;;0.80;0.50;;;;;;;13.28;39.11;100324.75;5092196;28;20058;-75
2023/03/28 10:41:29;;;;;;;1.00;0.50;;;;;;;13.33;39.20;100333.34;5092292;28;20044;-75
2023/03/28 10:43:57;;;;;;;1.77;0.50;;;;;;;13.33;39.10;100336.03;5092207;28;20536;-75
2023/03/28 10:46:31;;;;;;;1.05;0.70;;;;;;;13.34;39.21;100349.31;5092208;28;20055;-75
2023/03/28 10:49:04;;;;;;;1.27;0.60;;;;;;;13.34;39.04;100337.72;5092325;28;20127;-75
2023/03/28 10:51:36;;;;;;;1.23;0.52;;;;;;;13.36;39.00;100351.88;5091731;28;20048;-76
2023/03/28 10:54:21;;;;;;;1.00;0.40;;;;;;;13.38;39.00;100355.28;5091748;28;20454;-75
2023/03/28 10:56:54;;;;;;;1.95;0.82;;;;;;;13.39;39.05;100355.19;5090867;28;20109;-75
2023/03/28 10:59:41;;;;;;;1.70;0.80;;;;;;;13.42;38.89;100351.44;5091671;28;20499;-75
2023/03/28 11:02:33;;;;;;;1.40;0.80;;;;;;;13.44;39.03;100355.72;5091575;28;20044;-75
2023/03/28 11:05:11;;;;;;;1.17;0.70;;;;;;;13.46;39.00;100352.94;5091877;28;20097;-75
2023/03/28 11:07:49;;;;;;;1.38;0.55;;;;;;;13.51;39.00;100337.41;5091393;28;20503;-74
2023/03/28 11:10:23;;;;;;;1.35;0.50;;;;;;;13.53;39.29;100332.78;5091704;28;20044;-75
2023/03/28 11:13:06;;;;;;;2.00;0.60;;;;;;;13.58;39.42;100341.34;5091542;28;20135;-74
2023/03/28 11:15:42;;;;;;;0.85;0.52;;;;;;;13.60;39.25;100336.72;5091549;28;20040;-75
2023/03/28 11:18:26;;;;;;;0.43;0.43;;;;;;;13.65;39.39;100348.00;5091383;28;20071;-75
2023/03/28 11:21:11;;;;;;;0.73;0.40;;;;;;;13.67;39.33;100340.69;5091257;28;20044;-75
2023/03/28 11:23:47;;;;;;;1.02;0.60;;;;;;;13.74;39.44;100347.31;5091459;28;20123;-76
2023/03/28 11:26:20;;;;;;;1.25;0.63;;;;;;;13.78;39.52;100347.94;5091492;28;20481;-75
2023/03/28 11:28:54;;;;;;;;;;;;;;;13.83;39.50;100339.59;5091793;28;20473;-75
2023/03/28 11:31:28;;;;;;;1.27;0.57;;;;;;;13.86;39.50;100344.72;5091308;28;19946;-76
2023/03/28 11:34:02;;;;;;;0.82;0.55;;;;;;;13.89;39.45;100358.75;5091855;28;20044;-74
2023/03/28 11:36:36;;;;;;;1.55;0.57;;;;;;;13.93;39.61;100357.59;5091675;28;20516;-77
2023/03/28 11:39:13;;;;;;;0.53;0.50;;;;;;;13.97;39.46;100344.81;5091237;28;20489;-76
2023/03/28 11:41:44;;;;;;;1.27;0.50;;;;;;;14.02;39.40;100345.34;5091175;28;20048;-76
2023/03/28 11:44:18;;;;;;;2.53;0.60;;;;;;;14.08;39.59;100360.09;5091279;28;20040;-76
2023/03/28 11:46:50;;;;;;;0.98;0.60;;;;;;;14.09;39.46;100343.94;5091248;28;20055;-76
2023/03/28 11:49:27;;;;;;;0.93;0.50;;;;;;;14.15;39.67;100345.28;5091170;28;20040;-75
2023/03/28 11:52:01;;;;;;;0.90;0.55;;;;;;;14.19;39.58;100344.97;5091402;28;20168;-77
2023/03/28 11:54:37;;;;;;;0.70;0.50;;;;;;;14.20;39.59;100346.66;5091452;28;20040;-78